createdAt,value
2017-11-08T00:01:24.148Z,17.80
2017-11-08T00:03:51.759Z,16.33
2017-11-08T00:06:19.995Z,16.40
2017-11-08T00:08:47.457Z,16.62
2017-11-08T00:11:14.898Z,16.50
2017-11-08T00:13:42.377Z,15.38
2017-11-08T00:16:10.583Z,16.17
2017-11-08T00:18:38.028Z,15.88
2017-11-08T00:21:05.574Z,15.75
2017-11-08T00:23:35.967Z,15.85
2017-11-08T00:26:04.192Z,17.33
2017-11-08T00:28:31.663Z,15.13
2017-11-08T00:31:00.022Z,14.77
2017-11-08T00:33:27.458Z,14.90
2017-11-08T00:35:54.952Z,15.25
2017-11-08T00:38:22.408Z,15.75
2017-11-08T00:40:49.880Z,14.98
2017-11-08T00:43:18.125Z,15.63
2017-11-08T00:45:46.338Z,15.80
2017-11-08T00:48:13.814Z,16.00
2017-11-08T00:50:41.265Z,16.20
2017-11-08T00:53:09.972Z,14.07
2017-11-08T00:55:38.174Z,14.32
2017-11-08T00:58:05.636Z,15.90
2017-11-08T01:00:34.776Z,15.90
2017-11-08T01:03:02.252Z,15.68
2017-11-08T01:05:29.692Z,15.65
2017-11-08T01:07:57.905Z,14.95
2017-11-08T01:10:25.361Z,14.82
2017-11-08T01:12:52.809Z,15.55
2017-11-08T01:15:20.275Z,16.95
2017-11-08T01:17:47.719Z,14.80
2017-11-08T01:20:15.172Z,14.93
2017-11-08T01:22:42.604Z,17.08
2017-11-08T01:25:10.108Z,15.95
2017-11-08T01:27:38.319Z,16.40
2017-11-08T01:30:05.799Z,15.30
2017-11-08T01:32:33.268Z,17.15
2017-11-08T01:35:00.745Z,14.77
2017-11-08T01:37:33.728Z,15.25
2017-11-08T01:40:01.951Z,15.32
2017-11-08T01:42:29.407Z,15.32
2017-11-08T01:44:56.858Z,14.90
2017-11-08T01:47:24.317Z,16.90
2017-11-08T01:49:53.642Z,16.02
2017-11-08T01:52:25.333Z,16.10
2017-11-08T01:54:52.771Z,18.33
2017-11-08T01:57:20.237Z,18.10
2017-11-08T01:59:47.688Z,17.30
2017-11-08T02:02:15.161Z,15.43
2017-11-08T02:04:42.676Z,15.05
2017-11-08T02:07:10.128Z,16.60
2017-11-08T02:09:37.616Z,16.92
2017-11-08T02:12:05.056Z,17.35
2017-11-08T02:14:32.526Z,16.75
2017-11-08T02:16:59.962Z,15.30
2017-11-08T02:19:27.433Z,16.70
2017-11-08T02:21:54.873Z,15.65
2017-11-08T02:24:22.317Z,16.02
2017-11-08T02:26:52.586Z,17.42
2017-11-08T02:29:20.084Z,16.37
2017-11-08T02:31:47.533Z,15.55
2017-11-08T02:34:14.995Z,17.20
2017-11-08T02:36:42.475Z,17.52
2017-11-08T02:39:09.918Z,18.00
2017-11-08T02:41:38.127Z,17.15
2017-11-08T02:44:05.582Z,16.40
2017-11-08T02:46:33.805Z,16.48
2017-11-08T02:49:01.270Z,15.40
2017-11-08T02:51:29.557Z,17.10
2017-11-08T02:53:57.025Z,17.55
2017-11-08T02:56:25.263Z,16.15
2017-11-08T02:58:52.688Z,16.70
2017-11-08T03:01:20.164Z,17.77
2017-11-08T03:03:47.620Z,18.20
2017-11-08T03:06:15.077Z,15.88
2017-11-08T03:08:42.574Z,17.05
2017-11-08T03:11:10.053Z,17.83
2017-11-08T03:13:38.285Z,15.20
2017-11-08T03:16:06.299Z,16.77
2017-11-08T03:18:33.909Z,19.75
2017-11-08T03:21:01.372Z,16.80
2017-11-08T03:23:28.814Z,16.50
2017-11-08T03:25:56.263Z,16.92
2017-11-08T03:28:23.713Z,16.75
2017-11-08T03:30:51.963Z,18.05
2017-11-08T03:33:19.480Z,20.30
2017-11-08T03:35:47.721Z,18.98
2017-11-08T03:38:15.160Z,17.77
2017-11-08T03:40:43.396Z,16.95
2017-11-08T03:43:10.852Z,17.87
2017-11-08T03:45:38.313Z,18.62
2017-11-08T03:48:05.773Z,19.98
2017-11-08T03:50:34.007Z,17.90
2017-11-08T03:53:01.544Z,18.50
2017-11-08T03:55:28.984Z,18.37
2017-11-08T03:57:56.456Z,18.65
2017-11-08T04:00:23.900Z,19.42
2017-11-08T04:02:51.345Z,21.20
2017-11-08T04:05:18.802Z,19.33
2017-11-08T04:07:46.232Z,18.98
2017-11-08T04:10:13.703Z,19.15
2017-11-08T04:12:41.150Z,19.08
2017-11-08T04:15:08.611Z,19.00
2017-11-08T04:17:36.821Z,18.05
2017-11-08T04:20:04.328Z,19.08
2017-11-08T04:22:31.773Z,19.77
2017-11-08T04:24:59.220Z,18.42
2017-11-08T04:27:27.436Z,20.05
2017-11-08T04:29:54.889Z,19.40
2017-11-08T04:32:23.092Z,19.75
2017-11-08T04:34:51.329Z,18.85
2017-11-08T04:37:18.783Z,20.65
2017-11-08T04:39:46.241Z,19.42
2017-11-08T04:42:13.805Z,21.25
2017-11-08T04:44:42.085Z,19.87
2017-11-08T04:47:10.310Z,20.62
2017-11-08T04:49:37.771Z,20.55
2017-11-08T04:52:05.995Z,21.75
2017-11-08T04:54:33.450Z,21.62
2017-11-08T04:57:00.947Z,19.80
2017-11-08T04:59:28.384Z,20.10
2017-11-08T05:01:56.615Z,18.95
2017-11-08T05:04:24.118Z,20.10
2017-11-08T05:06:51.593Z,18.95
2017-11-08T05:09:19.025Z,19.30
2017-11-08T05:11:46.468Z,19.08
2017-11-08T05:14:13.940Z,20.73
2017-11-08T05:16:42.141Z,19.67
2017-11-08T05:19:10.365Z,19.58
2017-11-08T05:21:37.918Z,20.42
2017-11-08T05:24:06.198Z,21.08
2017-11-08T05:26:34.396Z,20.35
2017-11-08T05:29:01.857Z,20.23
2017-11-08T05:31:30.059Z,21.35
2017-11-08T05:33:58.303Z,20.12
2017-11-08T05:36:25.764Z,19.45
2017-11-08T05:38:53.232Z,20.75
2017-11-08T05:41:22.161Z,21.20
2017-11-08T05:43:50.401Z,20.65
2017-11-08T05:46:17.854Z,20.52
2017-11-08T05:48:45.308Z,21.45
2017-11-08T05:51:12.768Z,22.27
2017-11-08T05:53:40.285Z,21.27
2017-11-08T05:56:07.759Z,20.12
2017-11-08T05:58:35.205Z,21.95
2017-11-08T06:01:02.652Z,20.62
2017-11-08T06:03:30.207Z,21.80
2017-11-08T06:05:58.428Z,22.75
2017-11-08T06:08:25.892Z,23.20
2017-11-08T06:10:53.335Z,22.40
2017-11-08T06:13:22.049Z,24.02
2017-11-08T06:15:50.257Z,24.17
2017-11-08T06:18:17.761Z,23.55
2017-11-08T06:20:45.206Z,23.58
2017-11-08T06:23:12.648Z,24.55
2017-11-08T06:25:40.128Z,24.30
2017-11-08T06:28:07.576Z,24.08
2017-11-08T06:30:35.039Z,26.10
2017-11-08T06:33:02.484Z,25.67
2017-11-08T06:35:29.944Z,24.77
2017-11-08T06:37:58.144Z,25.15
2017-11-08T06:40:25.603Z,24.98
2017-11-08T06:42:53.072Z,24.80
2017-11-08T06:45:21.281Z,24.98
2017-11-08T06:47:48.756Z,25.40
2017-11-08T06:50:16.236Z,24.58
2017-11-08T06:52:43.705Z,23.17
2017-11-08T06:55:11.906Z,25.17
2017-11-08T06:57:39.357Z,27.83
2017-11-08T07:00:09.729Z,27.73
2017-11-08T07:02:37.195Z,26.08
2017-11-08T07:05:04.649Z,26.15
2017-11-08T07:07:32.912Z,25.40
2017-11-08T07:10:00.369Z,27.48
2017-11-08T07:12:27.829Z,24.67
2017-11-08T07:14:55.280Z,27.02
2017-11-08T07:17:22.760Z,25.95
2017-11-08T07:19:50.308Z,27.08
2017-11-08T07:22:17.772Z,27.20
2017-11-08T07:24:45.258Z,26.30
2017-11-08T07:27:12.711Z,27.40
2017-11-08T07:29:40.215Z,27.87
2017-11-08T07:32:08.422Z,26.20
2017-11-08T07:34:35.925Z,26.00
2017-11-08T07:37:03.389Z,26.60
2017-11-08T07:39:30.906Z,27.60
2017-11-08T07:41:58.406Z,26.62
2017-11-08T07:44:25.892Z,29.15
2017-11-08T07:46:54.286Z,28.58
2017-11-08T07:49:21.802Z,28.33
2017-11-08T07:51:49.276Z,28.20
2017-11-08T07:54:19.617Z,29.42
2017-11-08T07:56:47.069Z,27.17
2017-11-08T07:59:14.549Z,27.20
2017-11-08T08:01:42.040Z,28.80
2017-11-08T08:04:09.510Z,28.25
2017-11-08T08:06:37.005Z,28.80
2017-11-08T08:09:11.731Z,27.30
2017-11-08T08:11:39.188Z,30.15
2017-11-08T08:14:06.632Z,30.37
2017-11-08T08:16:34.876Z,28.80
2017-11-08T08:19:02.311Z,29.30
2017-11-08T08:21:30.578Z,29.87
2017-11-08T08:23:58.001Z,30.05
2017-11-08T08:26:30.256Z,27.17
2017-11-08T08:28:58.464Z,30.62
2017-11-08T08:31:25.935Z,31.58
2017-11-08T08:33:53.409Z,28.60
2017-11-08T08:36:21.637Z,30.17
2017-11-08T08:38:49.079Z,29.05
2017-11-08T08:41:16.543Z,29.67
2017-11-08T08:43:44.772Z,29.00
2017-11-08T08:46:12.249Z,29.30
2017-11-08T08:48:39.721Z,29.98
2017-11-08T08:51:07.169Z,30.90
2017-11-08T08:53:35.369Z,30.02
2017-11-08T08:56:02.844Z,29.05
2017-11-08T08:58:30.310Z,29.95
2017-11-08T09:00:57.790Z,30.83
2017-11-08T09:03:25.229Z,30.17
2017-11-08T09:05:52.705Z,28.55
2017-11-08T09:08:20.905Z,29.12
2017-11-08T09:10:48.705Z,29.33
2017-11-08T09:13:16.147Z,31.75
2017-11-08T09:15:43.628Z,29.27
2017-11-08T09:18:11.076Z,25.70
2017-11-08T09:20:38.572Z,30.08
2017-11-08T09:23:06.953Z,27.90
2017-11-08T09:25:34.400Z,30.60
2017-11-08T09:28:01.862Z,30.08
2017-11-08T09:30:30.253Z,29.63
2017-11-08T09:32:57.718Z,29.48
2017-11-08T09:35:25.947Z,31.05
2017-11-08T09:37:53.447Z,30.30
2017-11-08T09:40:23.873Z,29.60
2017-11-08T09:42:51.325Z,28.50
2017-11-08T09:45:19.725Z,31.20
2017-11-08T09:47:47.958Z,32.55
2017-11-08T09:50:15.432Z,30.50
2017-11-08T09:52:42.885Z,30.40
2017-11-08T09:55:10.361Z,33.15
2017-11-08T09:57:37.828Z,33.47
2017-11-08T10:00:05.292Z,31.83
2017-11-08T10:02:34.570Z,31.23
2017-11-08T10:05:02.083Z,32.33
2017-11-08T10:07:29.604Z,30.70
2017-11-08T10:09:57.056Z,32.05
2017-11-08T10:12:24.509Z,32.60
2017-11-08T10:14:51.974Z,31.75
2017-11-08T10:17:20.192Z,32.20
2017-11-08T10:19:47.663Z,31.95
2017-11-08T10:22:15.117Z,34.25
2017-11-08T10:24:42.589Z,32.55
2017-11-08T10:27:10.067Z,36.30
2017-11-08T10:29:38.296Z,33.22
2017-11-08T10:32:06.513Z,32.63
2017-11-08T10:34:33.983Z,33.63
2017-11-08T10:37:01.536Z,34.40
2017-11-08T10:39:29.715Z,35.33
2017-11-08T10:41:57.223Z,34.85
2017-11-08T10:44:24.657Z,37.35
2017-11-08T10:46:52.141Z,33.78
2017-11-08T10:49:21.430Z,32.17
2017-11-08T10:51:48.951Z,34.60
2017-11-08T10:54:17.183Z,37.25
2017-11-08T10:56:44.670Z,34.55
2017-11-08T10:59:17.696Z,34.72
2017-11-08T11:01:45.466Z,36.38
2017-11-08T11:04:12.908Z,35.05
2017-11-08T11:06:40.702Z,35.40
2017-11-08T11:09:08.155Z,35.85
2017-11-08T11:11:35.657Z,35.50
2017-11-08T11:14:08.762Z,35.38
2017-11-08T11:16:36.306Z,36.40
2017-11-08T11:19:04.547Z,36.05
2017-11-08T11:21:32.068Z,36.08
2017-11-08T11:24:03.195Z,32.95
2017-11-08T11:26:34.512Z,35.30
2017-11-08T11:29:02.723Z,32.60
2017-11-08T11:31:30.197Z,33.40
2017-11-08T11:33:57.630Z,36.70
2017-11-08T11:36:25.879Z,35.67
2017-11-08T11:38:55.268Z,36.10
2017-11-08T11:41:22.748Z,32.95
2017-11-08T11:43:50.258Z,35.92
2017-11-08T11:46:17.722Z,32.83
2017-11-08T11:48:50.767Z,33.80
2017-11-08T11:51:23.990Z,35.35
2017-11-08T11:53:52.259Z,35.40
2017-11-08T11:56:19.701Z,33.75
2017-11-08T11:58:47.161Z,34.50
2017-11-08T12:01:14.647Z,36.13
2017-11-08T12:03:42.105Z,34.05
2017-11-08T12:06:09.566Z,34.38
2017-11-08T12:08:37.794Z,34.33
2017-11-08T12:11:05.264Z,37.80
2017-11-08T12:13:32.773Z,36.55
2017-11-08T12:16:00.349Z,35.05
2017-11-08T12:18:27.790Z,34.15
2017-11-08T12:20:55.265Z,34.67
2017-11-08T12:23:22.745Z,35.28
2017-11-08T12:25:50.206Z,32.45
2017-11-08T12:28:18.587Z,32.90
2017-11-08T12:30:46.064Z,33.35
2017-11-08T12:33:13.502Z,34.72
2017-11-08T12:35:40.978Z,35.03
2017-11-08T12:38:08.459Z,34.50
2017-11-08T12:40:36.000Z,36.53
2017-11-08T12:43:03.482Z,34.95
2017-11-08T12:45:30.955Z,37.97
2017-11-08T12:47:58.388Z,36.30
2017-11-08T12:50:28.654Z,36.85
2017-11-08T12:52:56.142Z,35.63
2017-11-08T12:55:23.614Z,35.63
2017-11-08T12:57:51.104Z,36.60
2017-11-08T13:00:18.590Z,37.70
2017-11-08T13:02:46.893Z,33.83
2017-11-08T13:05:14.365Z,34.63
2017-11-08T13:07:41.910Z,36.53
2017-11-08T13:10:09.404Z,37.58
2017-11-08T13:12:36.901Z,39.08
2017-11-08T13:15:04.386Z,39.03
2017-11-08T13:17:32.697Z,36.47
2017-11-08T13:20:01.055Z,38.15
2017-11-08T13:22:28.549Z,38.03
2017-11-08T13:24:56.111Z,36.88
2017-11-08T13:27:23.588Z,35.88
2017-11-08T13:29:51.042Z,37.35
2017-11-08T13:32:18.519Z,39.47
2017-11-08T13:34:45.986Z,35.70
2017-11-08T13:37:14.233Z,33.30
2017-11-08T13:39:48.171Z,37.25
2017-11-08T13:42:22.910Z,38.17
2017-11-08T13:44:50.441Z,38.10
2017-11-08T13:47:18.702Z,36.20
2017-11-08T13:49:46.223Z,35.60
2017-11-08T13:52:13.702Z,38.15
2017-11-08T13:54:41.195Z,37.25
2017-11-08T13:57:08.807Z,38.25
2017-11-08T13:59:36.321Z,38.33
2017-11-08T14:02:04.550Z,41.65
2017-11-08T14:04:32.832Z,39.35
2017-11-08T14:07:01.338Z,38.35
2017-11-08T14:09:28.903Z,42.20
2017-11-08T14:11:56.486Z,40.58
2017-11-08T14:14:25.073Z,36.70
2017-11-08T14:16:52.595Z,38.63
2017-11-08T14:19:20.046Z,37.25
2017-11-08T14:21:52.445Z,39.80
2017-11-08T14:24:20.116Z,39.95
2017-11-08T14:26:53.571Z,40.25
2017-11-08T14:29:21.144Z,37.85
2017-11-08T14:31:48.618Z,37.70
2017-11-08T14:34:16.104Z,37.40
2017-11-08T14:36:43.581Z,36.88
2017-11-08T14:39:11.053Z,41.22
2017-11-08T14:41:38.537Z,38.20
2017-11-08T14:44:06.854Z,39.10
2017-11-08T14:46:34.297Z,37.28
2017-11-08T14:49:01.806Z,36.35
2017-11-08T14:51:33.274Z,36.30
2017-11-08T14:54:00.733Z,36.83
2017-11-08T14:56:28.229Z,37.10
2017-11-08T14:58:56.511Z,37.42
2017-11-08T15:01:24.068Z,34.53
2017-11-08T15:03:51.506Z,38.63
2017-11-08T15:06:18.980Z,34.85
2017-11-08T15:08:47.060Z,35.50
2017-11-08T15:11:16.430Z,35.25
2017-11-08T15:13:43.886Z,36.22
2017-11-08T15:16:11.358Z,36.53
2017-11-08T15:18:38.847Z,39.15
2017-11-08T15:21:06.295Z,35.95
2017-11-08T15:23:33.777Z,38.55
2017-11-08T15:26:01.242Z,35.22
2017-11-08T15:28:28.723Z,36.60
2017-11-08T15:30:56.210Z,37.30
2017-11-08T15:33:23.692Z,36.20
2017-11-08T15:35:51.150Z,36.90
2017-11-08T15:38:18.610Z,37.50
2017-11-08T15:40:46.086Z,36.72
2017-11-08T15:43:13.626Z,37.65
2017-11-08T15:45:41.128Z,37.10
2017-11-08T15:48:08.582Z,35.65
2017-11-08T15:50:36.056Z,36.70
2017-11-08T15:53:04.279Z,35.83
2017-11-08T15:55:32.500Z,37.92
2017-11-08T15:57:59.968Z,38.05
2017-11-08T16:00:27.526Z,38.75
2017-11-08T16:02:56.349Z,38.53
2017-11-08T16:05:23.869Z,39.20
2017-11-08T16:07:51.326Z,40.15
2017-11-08T16:10:18.788Z,39.03
2017-11-08T16:12:46.260Z,39.83
2017-11-08T16:15:13.705Z,36.78
2017-11-08T16:17:41.952Z,37.25
2017-11-08T16:20:15.077Z,38.60
2017-11-08T16:22:43.322Z,34.95
2017-11-08T16:25:10.824Z,39.67
2017-11-08T16:27:38.386Z,37.72
2017-11-08T16:30:05.845Z,37.75
2017-11-08T16:32:33.304Z,39.03
2017-11-08T16:35:00.796Z,39.90
2017-11-08T16:37:28.264Z,37.97
2017-11-08T16:39:55.745Z,39.65
2017-11-08T16:42:23.186Z,37.88
2017-11-08T16:44:51.413Z,38.22
2017-11-08T16:47:18.900Z,39.55
2017-11-08T16:49:46.402Z,37.72
2017-11-08T16:52:13.921Z,38.50
2017-11-08T16:54:41.383Z,38.85
2017-11-08T16:57:09.616Z,40.38
2017-11-08T16:59:37.063Z,38.72
2017-11-08T17:02:04.542Z,36.90
2017-11-08T17:04:32.069Z,38.80
2017-11-08T17:06:59.559Z,41.30
2017-11-08T17:09:27.021Z,40.75
2017-11-08T17:11:54.481Z,40.42
2017-11-08T17:14:22.114Z,40.58
2017-11-08T17:16:50.359Z,37.63
2017-11-08T17:19:17.823Z,40.50
2017-11-08T17:21:45.351Z,37.97
2017-11-08T17:24:13.569Z,38.83
2017-11-08T17:26:41.079Z,41.17
2017-11-08T17:29:08.543Z,38.25
2017-11-08T17:31:36.028Z,39.25
2017-11-08T17:34:03.554Z,39.55
2017-11-08T17:36:31.038Z,38.72
2017-11-08T17:38:58.540Z,40.83
2017-11-08T17:41:26.038Z,39.30
2017-11-08T17:43:53.481Z,37.97
2017-11-08T17:46:21.000Z,42.00
2017-11-08T17:48:48.434Z,43.78
2017-11-08T17:51:15.997Z,42.53
2017-11-08T17:53:43.455Z,42.15
2017-11-08T17:56:10.917Z,41.85
2017-11-08T17:58:39.213Z,39.13
2017-11-08T18:01:07.475Z,41.63
2017-11-08T18:03:35.032Z,39.85
2017-11-08T18:06:02.536Z,41.13
2017-11-08T18:08:30.002Z,38.53
2017-11-08T18:10:57.439Z,40.30
2017-11-08T18:13:24.947Z,39.40
2017-11-08T18:15:52.419Z,42.33
2017-11-08T18:18:20.050Z,41.20
2017-11-08T18:20:47.488Z,42.55
2017-11-08T18:23:15.950Z,39.95
2017-11-08T18:25:43.427Z,41.22
2017-11-08T18:28:11.738Z,41.67
2017-11-08T18:30:39.334Z,43.47
2017-11-08T18:33:06.877Z,43.78
2017-11-08T18:35:34.383Z,40.25
2017-11-08T18:38:01.862Z,42.10
2017-11-08T18:40:29.665Z,41.05
2017-11-08T18:42:57.125Z,41.30
2017-11-08T18:45:24.652Z,43.28
2017-11-08T18:47:52.625Z,40.28
2017-11-08T18:50:20.161Z,41.47
2017-11-08T18:52:47.681Z,43.72
2017-11-08T18:55:15.263Z,43.08
2017-11-08T18:57:42.761Z,43.58
2017-11-08T19:00:10.274Z,41.90
2017-11-08T19:02:37.783Z,42.33
2017-11-08T19:05:05.273Z,44.13
2017-11-08T19:07:32.770Z,42.78
2017-11-08T19:10:00.297Z,42.10
2017-11-08T19:12:27.797Z,43.45
2017-11-08T19:14:55.264Z,44.22
2017-11-08T19:17:22.743Z,45.35
2017-11-08T19:19:50.177Z,43.05
2017-11-08T19:22:17.889Z,42.35
2017-11-08T19:24:45.531Z,44.00
2017-11-08T19:27:13.834Z,45.47
2017-11-08T19:29:41.539Z,43.53
2017-11-08T19:32:09.066Z,41.70
2017-11-08T19:34:36.568Z,41.22
2017-11-08T19:37:05.026Z,42.50
2017-11-08T19:39:33.377Z,39.55
2017-11-08T19:42:01.378Z,41.05
2017-11-08T19:44:28.827Z,41.15
2017-11-08T19:46:57.072Z,39.30
2017-11-08T19:49:24.528Z,41.17
2017-11-08T19:51:52.033Z,41.10
2017-11-08T19:54:19.542Z,39.30
2017-11-08T19:56:47.788Z,39.90
2017-11-08T19:59:15.274Z,40.15
2017-11-08T20:01:42.778Z,39.90
2017-11-08T20:04:11.045Z,39.10
2017-11-08T20:06:38.486Z,38.65
2017-11-08T20:09:06.047Z,43.05
2017-11-08T20:11:33.554Z,39.75
2017-11-08T20:14:01.035Z,38.10
2017-11-08T20:16:28.516Z,36.97
2017-11-08T20:18:56.034Z,38.88
2017-11-08T20:21:23.659Z,39.05
2017-11-08T20:23:52.106Z,39.85
2017-11-08T20:26:20.427Z,40.00
2017-11-08T20:28:47.872Z,41.25
2017-11-08T20:31:18.963Z,38.25
2017-11-08T20:33:46.437Z,38.92
2017-11-08T20:36:13.988Z,40.38
2017-11-08T20:38:41.428Z,39.47
2017-11-08T20:41:09.021Z,37.58
2017-11-08T20:43:36.561Z,39.83
2017-11-08T20:46:04.567Z,40.80
2017-11-08T20:48:32.042Z,39.65
2017-11-08T20:51:00.176Z,39.67
2017-11-08T20:53:28.390Z,38.63
2017-11-08T20:55:55.850Z,41.35
2017-11-08T20:58:23.318Z,39.15
2017-11-08T21:00:50.770Z,41.55
2017-11-08T21:03:18.259Z,37.08
2017-11-08T21:05:46.526Z,40.42
2017-11-08T21:08:14.032Z,38.97
2017-11-08T21:10:42.242Z,38.60
2017-11-08T21:13:09.715Z,38.10
2017-11-08T21:15:37.197Z,39.83
2017-11-08T21:18:04.662Z,39.42
2017-11-08T21:20:32.139Z,38.30
2017-11-08T21:22:59.594Z,37.97
2017-11-08T21:25:27.891Z,39.72
2017-11-08T21:27:57.197Z,38.47
2017-11-08T21:30:24.657Z,37.13
2017-11-08T21:32:52.146Z,38.80
2017-11-08T21:35:19.612Z,37.13
2017-11-08T21:37:47.192Z,35.00
2017-11-08T21:40:14.657Z,36.30
2017-11-08T21:42:42.165Z,38.10
2017-11-08T21:45:10.402Z,40.03
2017-11-08T21:47:38.153Z,36.38
2017-11-08T21:50:05.626Z,38.17
2017-11-08T21:52:33.090Z,36.80
2017-11-08T21:55:01.322Z,37.30
2017-11-08T21:57:28.795Z,37.92
2017-11-08T21:59:57.623Z,39.50
2017-11-08T22:02:28.130Z,38.33
2017-11-08T22:05:00.241Z,36.65
2017-11-08T22:07:28.704Z,37.03
2017-11-08T22:15:15.097Z,37.35
2017-11-08T22:17:43.464Z,35.63
2017-11-08T22:20:11.139Z,36.88
2017-11-08T22:22:38.681Z,36.00
2017-11-08T22:25:06.234Z,39.40
2017-11-08T22:27:33.864Z,39.78
2017-11-08T22:30:01.442Z,40.38
2017-11-08T22:32:29.745Z,37.67
2017-11-08T22:34:57.205Z,39.25
2017-11-08T22:37:24.667Z,37.50
2017-11-08T22:39:52.133Z,38.28
2017-11-08T22:42:19.632Z,38.70
2017-11-08T22:44:47.945Z,39.65
2017-11-08T22:47:16.142Z,40.70
2017-11-08T22:49:43.657Z,38.08
2017-11-08T22:52:12.288Z,41.50
2017-11-08T22:54:40.550Z,37.22
2017-11-08T22:57:08.978Z,36.80
2017-11-08T22:59:38.719Z,40.10
2017-11-08T23:02:07.664Z,36.47
2017-11-08T23:04:35.415Z,38.30
2017-11-08T23:07:03.652Z,38.85
2017-11-08T23:09:31.118Z,39.70
2017-11-08T23:11:58.634Z,38.35
2017-11-08T23:14:26.137Z,37.47
2017-11-08T23:16:54.364Z,38.08
2017-11-08T23:19:21.827Z,37.83
2017-11-08T23:21:49.294Z,38.88
2017-11-08T23:24:16.753Z,36.47
2017-11-08T23:26:44.248Z,35.85
2017-11-08T23:29:11.757Z,36.22
2017-11-08T23:31:39.237Z,38.33
2017-11-08T23:34:06.694Z,37.45
2017-11-08T23:36:34.189Z,37.40
2017-11-08T23:39:02.538Z,40.65
2017-11-08T23:41:29.989Z,36.90
2017-11-08T23:43:58.205Z,36.88
2017-11-08T23:46:25.663Z,39.65
2017-11-08T23:48:53.129Z,37.83
2017-11-08T23:51:21.376Z,38.83
2017-11-08T23:53:48.838Z,40.78
2017-11-08T23:56:17.257Z,38.13
2017-11-08T23:58:44.769Z,37.85
